createdAt,value
2018-01-24T00:01:34.195Z,6.50
2018-01-24T00:04:03.492Z,6.73
2018-01-24T00:06:32.749Z,5.27
2018-01-24T00:09:02.812Z,7.30
2018-01-24T00:11:32.207Z,6.30
2018-01-24T00:14:01.482Z,5.90
2018-01-24T00:16:30.756Z,5.20
2018-01-24T00:19:00.162Z,6.30
2018-01-24T00:21:29.421Z,6.87
2018-01-24T00:23:58.666Z,6.60
2018-01-24T00:26:27.925Z,5.07
2018-01-24T00:28:57.925Z,6.53
2018-01-24T00:31:27.190Z,7.03
2018-01-24T00:33:56.437Z,6.53
2018-01-24T00:36:25.733Z,7.13
2018-01-24T00:38:55.797Z,5.17
2018-01-24T00:41:25.301Z,6.10
2018-01-24T00:43:54.535Z,5.93
2018-01-24T00:46:23.804Z,6.47
2018-01-24T00:48:53.078Z,5.60
2018-01-24T00:51:22.481Z,7.70
2018-01-24T00:53:51.807Z,7.00
2018-01-24T00:56:21.185Z,7.07
2018-01-24T00:58:50.441Z,6.10
2018-01-24T01:01:19.712Z,6.57
2018-01-24T01:03:48.977Z,6.30
2018-01-24T01:06:18.238Z,4.97
2018-01-24T01:08:47.500Z,5.30
2018-01-24T01:11:16.811Z,5.90
2018-01-24T01:13:46.061Z,6.00
2018-01-24T01:16:16.061Z,6.30
2018-01-24T01:18:45.343Z,5.57
2018-01-24T01:21:14.598Z,4.60
2018-01-24T01:23:44.654Z,5.70
2018-01-24T01:26:13.892Z,6.83
2018-01-24T01:28:43.153Z,4.23
2018-01-24T01:31:12.404Z,6.07
2018-01-24T01:33:41.880Z,5.30
2018-01-24T01:36:11.462Z,4.93
2018-01-24T01:38:40.733Z,5.00
2018-01-24T01:41:10.045Z,5.30
2018-01-24T01:43:39.308Z,4.63
2018-01-24T01:46:08.572Z,5.03
2018-01-24T01:48:37.999Z,5.40
2018-01-24T01:51:07.384Z,4.47
2018-01-24T01:53:36.665Z,5.17
2018-01-24T01:56:06.071Z,6.40
2018-01-24T01:58:35.305Z,5.13
2018-01-24T02:01:04.732Z,4.90
2018-01-24T02:03:34.017Z,4.60
2018-01-24T02:06:03.268Z,4.50
2018-01-24T02:08:32.543Z,6.03
2018-01-24T02:11:01.793Z,5.10
2018-01-24T02:13:31.084Z,5.17
2018-01-24T02:16:00.334Z,4.50
2018-01-24T02:18:30.366Z,5.23
2018-01-24T02:20:59.648Z,4.00
2018-01-24T02:23:29.233Z,4.60
2018-01-24T02:25:59.052Z,4.70
2018-01-24T02:28:28.321Z,4.60
2018-01-24T02:30:57.693Z,5.13
2018-01-24T02:33:27.764Z,4.60
2018-01-24T02:35:57.724Z,4.63
2018-01-24T02:38:45.584Z,4.60
2018-01-24T02:41:14.814Z,4.47
2018-01-24T02:43:44.089Z,5.63
2018-01-24T02:46:14.140Z,5.20
2018-01-24T02:48:43.398Z,4.33
2018-01-24T02:51:12.657Z,4.10
2018-01-24T02:53:41.970Z,4.00
2018-01-24T02:56:11.201Z,3.63
2018-01-24T02:58:41.222Z,4.10
2018-01-24T03:01:10.460Z,4.17
2018-01-24T03:03:40.020Z,3.90
2018-01-24T03:06:09.269Z,4.10
2018-01-24T03:08:38.517Z,3.50
2018-01-24T03:11:08.545Z,4.20
2018-01-24T03:13:37.830Z,3.57
2018-01-24T03:16:07.228Z,3.67
2018-01-24T03:18:37.250Z,3.47
2018-01-24T03:21:06.521Z,3.40
2018-01-24T03:23:35.763Z,3.40
2018-01-24T03:26:05.798Z,3.10
2018-01-24T03:28:35.046Z,4.30
2018-01-24T03:31:04.325Z,3.30
2018-01-24T03:33:33.570Z,3.20
2018-01-24T03:36:02.821Z,3.50
2018-01-24T03:38:32.106Z,3.27
2018-01-24T03:41:01.341Z,4.27
2018-01-24T03:43:30.600Z,3.07
2018-01-24T03:45:59.847Z,3.60
2018-01-24T03:48:29.112Z,3.37
2018-01-24T03:50:58.357Z,2.73
2018-01-24T03:53:28.413Z,3.10
2018-01-24T03:55:58.414Z,3.10
2018-01-24T03:58:27.807Z,3.30
2018-01-24T04:00:57.273Z,2.70
2018-01-24T04:03:26.539Z,3.10
2018-01-24T04:05:55.793Z,2.93
2018-01-24T04:08:25.045Z,3.53
2018-01-24T04:10:54.532Z,2.83
2018-01-24T04:13:23.849Z,2.93
2018-01-24T04:15:53.121Z,2.80
2018-01-24T04:18:22.380Z,2.50
2018-01-24T04:20:51.638Z,2.83
2018-01-24T04:23:20.925Z,2.83
2018-01-24T04:25:50.182Z,2.70
2018-01-24T04:28:19.453Z,2.50
2018-01-24T04:30:49.055Z,3.00
2018-01-24T04:33:18.317Z,2.73
2018-01-24T04:35:47.593Z,2.90
2018-01-24T04:38:16.836Z,2.50
2018-01-24T04:40:46.089Z,2.50
2018-01-24T04:43:15.473Z,2.37
2018-01-24T04:45:44.729Z,2.13
2018-01-24T04:48:13.970Z,2.67
2018-01-24T04:50:43.221Z,2.50
2018-01-24T04:53:12.463Z,1.83
2018-01-24T04:55:42.485Z,2.23
2018-01-24T04:58:11.960Z,2.50
2018-01-24T05:00:41.253Z,2.57
2018-01-24T05:03:10.510Z,2.00
2018-01-24T05:05:39.773Z,2.50
2018-01-24T05:08:09.769Z,2.43
2018-01-24T05:10:39.073Z,3.00
2018-01-24T05:13:09.871Z,3.10
2018-01-24T05:15:39.143Z,2.33
2018-01-24T05:18:08.658Z,2.10
2018-01-24T05:20:37.869Z,2.13
2018-01-24T05:23:07.151Z,2.23
2018-01-24T05:25:37.156Z,2.27
2018-01-24T05:28:06.444Z,2.10
2018-01-24T05:30:35.733Z,2.60
2018-01-24T05:33:04.992Z,2.37
2018-01-24T05:35:34.231Z,2.13
2018-01-24T05:38:03.500Z,1.90
2018-01-24T05:40:32.749Z,2.23
2018-01-24T05:43:02.039Z,2.20
2018-01-24T05:45:31.309Z,2.57
2018-01-24T05:48:00.560Z,1.97
2018-01-24T05:50:30.577Z,2.80
2018-01-24T05:52:59.948Z,2.30
2018-01-24T05:55:29.220Z,2.70
2018-01-24T05:57:58.555Z,3.10
2018-01-24T06:00:27.798Z,2.70
2018-01-24T06:02:57.060Z,2.83
2018-01-24T06:05:26.456Z,3.40
2018-01-24T06:07:55.720Z,3.97
2018-01-24T06:10:25.084Z,3.23
2018-01-24T06:12:54.344Z,2.90
2018-01-24T06:15:23.613Z,2.40
2018-01-24T06:17:52.860Z,3.13
2018-01-24T06:20:22.131Z,3.10
2018-01-24T06:22:51.364Z,3.40
2018-01-24T06:25:20.629Z,2.90
2018-01-24T06:27:50.213Z,3.20
2018-01-24T06:30:20.235Z,3.30
2018-01-24T06:32:49.480Z,2.37
2018-01-24T06:35:18.734Z,2.77
2018-01-24T06:37:48.744Z,2.50
2018-01-24T06:40:17.977Z,3.30
2018-01-24T06:42:47.214Z,2.93
2018-01-24T06:45:16.473Z,2.90
2018-01-24T06:47:45.827Z,3.53
2018-01-24T06:50:15.031Z,3.80
2018-01-24T06:52:44.441Z,3.07
2018-01-24T06:55:13.681Z,3.60
2018-01-24T06:57:43.074Z,2.47
2018-01-24T07:00:12.329Z,3.00
2018-01-24T07:02:41.660Z,3.30
2018-01-24T07:05:11.701Z,2.80
2018-01-24T07:07:40.984Z,2.90
2018-01-24T07:10:10.268Z,2.70
2018-01-24T07:12:57.288Z,3.03
2018-01-24T07:15:26.527Z,3.10
2018-01-24T07:17:55.906Z,3.00
2018-01-24T07:20:25.909Z,3.50
2018-01-24T07:22:56.018Z,2.97
2018-01-24T07:25:26.794Z,3.87
2018-01-24T07:27:56.037Z,3.70
2018-01-24T07:30:25.307Z,4.00
2018-01-24T07:32:54.788Z,3.90
2018-01-24T07:35:24.879Z,3.50
2018-01-24T07:37:54.286Z,3.43
2018-01-24T07:40:25.057Z,3.00
2018-01-24T07:42:54.304Z,3.20
2018-01-24T07:45:23.624Z,3.07
2018-01-24T07:47:54.398Z,3.30
2018-01-24T07:50:23.681Z,3.50
2018-01-24T07:52:52.958Z,3.47
2018-01-24T07:55:22.240Z,2.57
2018-01-24T07:57:51.501Z,2.67
2018-01-24T08:00:20.766Z,3.10
2018-01-24T08:02:50.037Z,4.07
2018-01-24T08:05:19.284Z,2.70
2018-01-24T08:07:48.564Z,3.27
2018-01-24T08:10:17.897Z,4.70
2018-01-24T08:12:47.222Z,2.97
2018-01-24T08:15:16.521Z,3.87
2018-01-24T08:17:45.746Z,3.23
2018-01-24T08:20:15.021Z,3.80
2018-01-24T08:22:44.291Z,3.57
2018-01-24T08:25:13.539Z,4.20
2018-01-24T08:27:42.818Z,5.90
2018-01-24T08:30:12.077Z,4.97
2018-01-24T08:32:41.338Z,4.10
2018-01-24T08:35:10.591Z,4.70
2018-01-24T08:37:40.617Z,4.87
2018-01-24T08:40:09.894Z,4.90
2018-01-24T08:42:39.137Z,3.40
2018-01-24T08:45:08.425Z,4.10
2018-01-24T08:47:37.648Z,3.67
2018-01-24T08:50:06.912Z,3.00
2018-01-24T08:52:36.948Z,3.30
2018-01-24T08:55:06.222Z,3.43
2018-01-24T08:57:35.469Z,2.57
2018-01-24T09:00:04.804Z,2.93
2018-01-24T09:02:34.061Z,3.00
2018-01-24T09:05:03.312Z,3.43
2018-01-24T09:07:32.582Z,2.70
2018-01-24T09:10:01.860Z,3.20
2018-01-24T09:12:31.104Z,2.40
2018-01-24T09:15:00.377Z,4.90
2018-01-24T09:17:29.620Z,5.73
2018-01-24T09:19:58.914Z,4.83
2018-01-24T09:22:28.305Z,5.03
2018-01-24T09:24:57.584Z,5.07
2018-01-24T09:27:30.764Z,4.90
2018-01-24T09:30:00.034Z,4.30
2018-01-24T09:32:29.458Z,4.00
2018-01-24T09:34:59.488Z,4.60
2018-01-24T09:37:29.489Z,4.40
2018-01-24T09:39:59.529Z,4.03
2018-01-24T09:42:28.825Z,4.23
2018-01-24T09:44:58.105Z,3.93
2018-01-24T09:47:27.453Z,3.53
2018-01-24T09:49:56.693Z,3.83
2018-01-24T09:52:25.959Z,3.20
2018-01-24T09:54:55.208Z,3.40
2018-01-24T09:57:25.273Z,3.50
2018-01-24T09:59:54.519Z,3.27
2018-01-24T10:02:23.794Z,2.23
2018-01-24T10:04:53.089Z,2.20
2018-01-24T10:07:22.372Z,1.80
2018-01-24T10:09:51.648Z,1.80
2018-01-24T10:12:20.887Z,1.80
2018-01-24T10:14:50.167Z,1.40
2018-01-24T10:17:19.419Z,1.43
2018-01-24T10:19:48.736Z,1.60
2018-01-24T10:22:17.961Z,1.40
2018-01-24T10:24:47.239Z,1.30
2018-01-24T10:27:17.250Z,1.40
2018-01-24T10:29:46.496Z,1.27
2018-01-24T10:32:15.762Z,1.70
2018-01-24T10:34:45.785Z,1.37
2018-01-24T10:37:15.045Z,1.40
2018-01-24T10:39:44.302Z,0.83
2018-01-24T10:42:13.596Z,1.37
2018-01-24T10:44:43.185Z,1.23
2018-01-24T10:47:12.541Z,1.17
2018-01-24T10:49:41.981Z,1.27
2018-01-24T10:52:12.258Z,1.33
2018-01-24T10:54:41.534Z,1.27
2018-01-24T10:57:11.564Z,1.27
2018-01-24T10:59:40.814Z,1.33
2018-01-24T11:02:10.069Z,1.20
2018-01-24T11:04:39.334Z,1.10
2018-01-24T11:07:08.702Z,1.03
2018-01-24T11:09:37.959Z,0.90
2018-01-24T11:12:07.544Z,0.93
2018-01-24T11:14:36.796Z,1.10
2018-01-24T11:17:06.053Z,1.17
2018-01-24T11:19:36.268Z,1.00
2018-01-24T11:22:05.666Z,1.00
2018-01-24T11:24:34.958Z,1.13
2018-01-24T11:27:04.218Z,1.47
2018-01-24T11:29:33.810Z,1.47
2018-01-24T11:32:03.185Z,1.40
2018-01-24T11:34:32.521Z,1.40
2018-01-24T11:37:01.745Z,0.90
2018-01-24T11:39:31.062Z,1.07
2018-01-24T11:42:00.314Z,3.07
2018-01-24T11:44:30.338Z,1.73
2018-01-24T11:46:59.707Z,2.30
2018-01-24T11:49:28.964Z,1.23
2018-01-24T11:51:58.239Z,1.17
2018-01-24T11:54:27.605Z,1.10
2018-01-24T11:56:56.899Z,1.23
2018-01-24T11:59:26.153Z,2.40
2018-01-24T12:01:55.604Z,1.87
2018-01-24T12:04:24.854Z,1.83
2018-01-24T12:06:54.134Z,2.10
2018-01-24T12:09:24.149Z,1.80
2018-01-24T12:11:53.438Z,2.73
2018-01-24T12:14:22.710Z,1.83
2018-01-24T12:16:52.010Z,4.00
2018-01-24T12:19:21.768Z,3.97
2018-01-24T12:21:51.029Z,1.90
2018-01-24T12:24:20.285Z,2.00
2018-01-24T12:26:49.629Z,1.60
2018-01-24T12:29:18.874Z,1.70
2018-01-24T12:31:48.149Z,1.43
2018-01-24T12:34:17.392Z,1.73
2018-01-24T12:36:46.660Z,1.47
2018-01-24T12:39:15.889Z,1.10
2018-01-24T12:41:45.166Z,1.57
2018-01-24T12:44:14.401Z,1.60
2018-01-24T12:46:43.774Z,3.70
2018-01-24T12:49:13.803Z,2.50
2018-01-24T12:51:43.032Z,2.67
2018-01-24T12:54:12.305Z,1.90
2018-01-24T12:56:41.734Z,2.20
2018-01-24T12:59:11.017Z,2.53
2018-01-24T13:01:40.283Z,2.17
2018-01-24T13:04:09.593Z,2.87
2018-01-24T13:06:38.883Z,3.30
2018-01-24T13:09:08.113Z,4.10
2018-01-24T13:11:37.407Z,3.50
2018-01-24T13:14:07.430Z,4.13
2018-01-24T13:16:36.708Z,4.37
2018-01-24T13:19:06.023Z,4.33
2018-01-24T13:21:35.269Z,3.43
2018-01-24T13:24:04.520Z,3.53
2018-01-24T13:26:34.557Z,5.77
2018-01-24T13:29:03.830Z,4.70
2018-01-24T13:31:33.106Z,3.03
2018-01-24T13:34:02.399Z,3.57
2018-01-24T13:36:31.661Z,3.80
2018-01-24T13:39:01.709Z,3.50
2018-01-24T13:41:30.931Z,3.00
2018-01-24T13:44:00.274Z,2.83
2018-01-24T13:46:29.531Z,3.57
2018-01-24T13:48:58.813Z,2.60
2018-01-24T13:51:28.068Z,3.47
2018-01-24T13:53:58.105Z,3.43
2018-01-24T13:56:27.406Z,3.50
2018-01-24T13:58:56.670Z,2.80
2018-01-24T14:01:25.949Z,2.80
2018-01-24T14:03:55.192Z,2.43
2018-01-24T14:06:25.227Z,3.30
2018-01-24T14:08:54.497Z,2.50
2018-01-24T14:11:24.516Z,2.87
2018-01-24T14:13:53.789Z,3.03
2018-01-24T14:16:23.041Z,3.27
2018-01-24T14:18:52.332Z,2.87
2018-01-24T14:21:21.599Z,3.23
2018-01-24T14:23:50.863Z,3.57
2018-01-24T14:26:20.238Z,3.20
2018-01-24T14:28:49.509Z,2.93
2018-01-24T14:31:18.762Z,2.80
2018-01-24T14:33:48.048Z,2.80
2018-01-24T14:36:18.089Z,3.37
2018-01-24T14:38:47.369Z,3.87
2018-01-24T14:41:16.617Z,3.60
2018-01-24T14:43:45.872Z,3.13
2018-01-24T14:46:15.144Z,2.63
2018-01-24T14:48:44.390Z,2.70
2018-01-24T14:51:13.671Z,3.10
2018-01-24T14:53:42.956Z,3.03
2018-01-24T14:56:12.205Z,2.70
2018-01-24T14:58:41.476Z,3.53
2018-01-24T15:01:10.776Z,3.53
2018-01-24T15:03:39.994Z,3.93
2018-01-24T15:06:09.250Z,3.40
2018-01-24T15:08:38.493Z,2.67
2018-01-24T15:11:07.799Z,3.50
2018-01-24T15:13:37.202Z,3.40
2018-01-24T15:16:06.421Z,2.87
2018-01-24T15:18:35.754Z,2.30
2018-01-24T15:21:04.995Z,2.97
2018-01-24T15:23:34.304Z,2.43
2018-01-24T15:26:03.534Z,3.00
2018-01-24T15:28:32.785Z,2.40
2018-01-24T15:31:02.077Z,2.50
2018-01-24T15:33:31.345Z,2.73
2018-01-24T15:36:00.591Z,2.60
2018-01-24T15:38:29.917Z,4.63
2018-01-24T15:40:59.270Z,6.20
2018-01-24T15:43:28.551Z,2.50
2018-01-24T15:45:57.860Z,3.60
2018-01-24T15:48:27.303Z,3.43
2018-01-24T15:50:56.570Z,4.33
2018-01-24T15:53:25.818Z,4.40
2018-01-24T15:55:55.953Z,3.33
2018-01-24T15:58:25.242Z,3.40
2018-01-24T16:00:54.490Z,2.43
2018-01-24T16:03:23.746Z,3.77
2018-01-24T16:05:53.170Z,4.63
2018-01-24T16:08:22.430Z,3.03
2018-01-24T16:10:51.839Z,3.60
2018-01-24T16:13:21.092Z,3.50
2018-01-24T16:15:51.149Z,3.67
2018-01-24T16:18:20.450Z,3.00
2018-01-24T16:20:49.695Z,2.70
2018-01-24T16:23:18.989Z,2.60
2018-01-24T16:25:48.453Z,2.53
2018-01-24T16:28:17.710Z,2.33
2018-01-24T16:30:46.948Z,2.17
2018-01-24T16:33:16.216Z,3.93
2018-01-24T16:35:45.657Z,4.80
2018-01-24T16:38:15.716Z,4.83
2018-01-24T16:40:44.974Z,3.80
2018-01-24T16:43:14.249Z,3.57
2018-01-24T16:45:43.498Z,3.70
2018-01-24T16:48:12.930Z,2.73
2018-01-24T16:50:42.193Z,2.60
2018-01-24T16:53:11.456Z,3.47
2018-01-24T16:55:40.704Z,3.30
2018-01-24T16:58:10.194Z,7.33
2018-01-24T17:00:39.476Z,4.67
2018-01-24T17:03:08.806Z,7.00
2018-01-24T17:05:38.068Z,4.77
2018-01-24T17:08:07.497Z,5.20
2018-01-24T17:10:36.762Z,4.60
2018-01-24T17:13:06.040Z,3.50
2018-01-24T17:15:35.460Z,4.03
2018-01-24T17:18:04.725Z,2.53
2018-01-24T17:20:33.978Z,2.70
2018-01-24T17:23:03.246Z,2.40
2018-01-24T17:25:32.482Z,3.00
2018-01-24T17:28:01.779Z,10.07
2018-01-24T17:30:31.037Z,4.30
2018-01-24T17:33:00.344Z,2.87
2018-01-24T17:35:29.757Z,3.40
2018-01-24T17:37:59.087Z,3.50
2018-01-24T17:40:28.369Z,7.40
2018-01-24T17:42:57.646Z,9.83
2018-01-24T17:45:26.998Z,5.17
2018-01-24T17:47:56.236Z,5.63
2018-01-24T17:50:25.484Z,6.20
2018-01-24T17:52:54.761Z,9.00
2018-01-24T17:55:24.104Z,6.03
2018-01-24T17:57:53.384Z,6.97
2018-01-24T18:00:22.658Z,4.20
2018-01-24T18:02:51.927Z,2.50
2018-01-24T18:05:21.205Z,11.13
2018-01-24T18:07:50.491Z,3.70
2018-01-24T18:10:19.733Z,3.50
2018-01-24T18:12:49.789Z,3.30
2018-01-24T18:15:19.070Z,4.67
2018-01-24T18:17:48.359Z,4.93
2018-01-24T18:20:17.624Z,4.43
2018-01-24T18:22:47.146Z,4.33
2018-01-24T18:25:16.389Z,2.67
2018-01-24T18:27:45.673Z,1.87
2018-01-24T18:30:15.066Z,2.10
2018-01-24T18:32:44.460Z,2.00
2018-01-24T18:35:13.748Z,1.97
2018-01-24T18:37:43.009Z,1.57
2018-01-24T18:40:12.277Z,1.37
2018-01-24T18:42:41.523Z,1.40
2018-01-24T18:45:10.862Z,0.70
2018-01-24T18:47:40.132Z,1.23
2018-01-24T18:50:09.429Z,1.33
2018-01-24T18:52:38.688Z,1.37
2018-01-24T18:55:07.969Z,1.47
2018-01-24T18:57:37.999Z,1.67
2018-01-24T19:00:07.279Z,1.70
2018-01-24T19:02:36.549Z,1.33
2018-01-24T19:05:05.796Z,1.73
2018-01-24T19:07:35.822Z,2.40
2018-01-24T19:10:05.113Z,1.63
2018-01-24T19:12:34.366Z,1.60
2018-01-24T19:15:03.610Z,1.00
2018-01-24T19:17:32.907Z,1.63
2018-01-24T19:20:02.173Z,1.37
2018-01-24T19:22:31.405Z,1.63
2018-01-24T19:25:01.423Z,1.53
2018-01-24T19:27:31.498Z,1.10
2018-01-24T19:30:00.734Z,1.33
2018-01-24T19:32:29.991Z,1.57
2018-01-24T19:34:59.236Z,1.30
2018-01-24T19:37:28.511Z,1.73
2018-01-24T19:39:57.755Z,2.50
2018-01-24T19:42:27.017Z,1.40
2018-01-24T19:44:56.269Z,1.20
2018-01-24T19:47:25.512Z,1.40
2018-01-24T19:49:54.794Z,1.80
2018-01-24T19:52:24.077Z,1.60
2018-01-24T19:54:53.342Z,2.80
2018-01-24T19:57:24.146Z,1.47
2018-01-24T19:59:53.393Z,1.93
2018-01-24T20:02:22.687Z,1.80
2018-01-24T20:04:51.968Z,1.50
2018-01-24T20:07:21.372Z,1.27
2018-01-24T20:09:50.621Z,1.70
2018-01-24T20:12:19.890Z,1.80
2018-01-24T20:14:49.924Z,1.43
2018-01-24T20:17:20.034Z,1.80
2018-01-24T20:19:49.306Z,2.00
2018-01-24T20:22:18.580Z,1.77
2018-01-24T20:24:47.863Z,1.57
2018-01-24T20:27:17.138Z,2.00
2018-01-24T20:29:47.909Z,1.70
2018-01-24T20:32:17.191Z,2.10
2018-01-24T20:34:46.447Z,1.50
2018-01-24T20:37:15.722Z,1.70
2018-01-24T20:39:44.972Z,1.30
2018-01-24T20:42:14.253Z,1.70
2018-01-24T20:44:43.625Z,2.50
2018-01-24T20:47:13.086Z,1.70
2018-01-24T20:49:43.129Z,1.70
2018-01-24T20:52:13.179Z,1.50
2018-01-24T20:54:42.417Z,1.43
2018-01-24T20:57:11.668Z,2.10
2018-01-24T20:59:40.943Z,2.37
2018-01-24T21:02:10.181Z,1.93
2018-01-24T21:04:39.767Z,1.90
2018-01-24T21:07:08.985Z,1.60
2018-01-24T21:09:38.243Z,1.53
2018-01-24T21:12:08.261Z,2.30
2018-01-24T21:14:37.517Z,2.10
2018-01-24T21:17:06.787Z,1.50
2018-01-24T21:19:36.059Z,1.83
2018-01-24T21:22:05.474Z,2.33
2018-01-24T21:24:34.719Z,2.23
2018-01-24T21:27:03.970Z,2.30
2018-01-24T21:29:52.534Z,2.07
2018-01-24T21:32:39.502Z,2.40
2018-01-24T21:38:12.194Z,2.13
2018-01-24T21:40:41.441Z,2.10
2018-01-24T21:43:11.460Z,2.00
2018-01-24T21:45:40.725Z,1.80
2018-01-24T21:48:10.713Z,2.00
2018-01-24T21:50:39.962Z,1.60
2018-01-24T21:53:09.230Z,1.90
2018-01-24T21:55:38.473Z,2.07
2018-01-24T21:58:08.534Z,2.10
2018-01-24T22:00:37.926Z,2.50
2018-01-24T22:03:07.178Z,1.83
2018-01-24T22:05:36.421Z,2.23
2018-01-24T22:08:05.678Z,2.63
2018-01-24T22:10:35.104Z,2.07
2018-01-24T22:13:05.117Z,1.63
2018-01-24T22:15:34.373Z,2.07
2018-01-24T22:18:03.609Z,1.90
2018-01-24T22:20:32.883Z,1.87
2018-01-24T22:23:02.149Z,3.67
2018-01-24T22:25:31.457Z,1.80
2018-01-24T22:28:00.722Z,1.97
2018-01-24T22:30:29.978Z,2.20
2018-01-24T22:32:59.403Z,2.53
2018-01-24T22:35:28.681Z,2.33
2018-01-24T22:37:57.962Z,1.60
2018-01-24T22:40:27.227Z,1.50
2018-01-24T22:42:56.474Z,2.20
2018-01-24T22:45:26.397Z,2.10
2018-01-24T22:47:55.664Z,2.27
2018-01-24T22:50:24.897Z,2.00
2018-01-24T22:52:54.148Z,1.87
2018-01-24T22:55:23.652Z,2.33
2018-01-24T22:57:52.913Z,2.43
2018-01-24T23:00:26.855Z,2.23
2018-01-24T23:02:56.153Z,2.20
2018-01-24T23:05:25.584Z,2.47
2018-01-24T23:07:54.842Z,2.50
2018-01-24T23:10:24.085Z,2.30
2018-01-24T23:12:54.272Z,2.10
2018-01-24T23:15:23.525Z,3.00
2018-01-24T23:17:52.775Z,1.83
2018-01-24T23:20:22.093Z,2.17
2018-01-24T23:22:51.316Z,2.07
2018-01-24T23:25:20.656Z,2.57
2018-01-24T23:27:50.463Z,2.50
2018-01-24T23:30:19.711Z,1.63
2018-01-24T23:32:48.980Z,1.57
2018-01-24T23:35:18.328Z,2.40
2018-01-24T23:37:48.352Z,1.90
2018-01-24T23:40:17.593Z,3.13
2018-01-24T23:42:47.690Z,2.00
2018-01-24T23:45:16.966Z,1.77
2018-01-24T23:47:46.993Z,2.23
2018-01-24T23:50:16.293Z,1.50
2018-01-24T23:52:45.513Z,2.27
2018-01-24T23:55:14.832Z,2.67
2018-01-24T23:57:44.087Z,2.17
